• Join FlightAware (Why Join?)
  • Login
  • US Flag 
01:32AM EST


 

Airport Tracker/Info


-or-


 

Live Flight TrackerFlight Track Log ✈ AFR702 ✈ 04-May-2013 ✈ LFPG / CDG - DIAP / ABJ

Flight Track Log - Related Links

Times and Time Zones

All times are in EDT time to prevent confusion due to time zone crossing. See the AFR702 flight status page for this flight to view local times or setup timezone preferences in your user account.

Time Position Orientation Groundspeed Altitude Reporting Facility
EDT Latitude Longitude Course Direction KTS MPH feet Rate Location/Type
08:38AM 48.9965 2.5675 265° West 200  Level FlightAware ADS-B
08:38AM 48.9959 2.5578 265° West 181 208 500 2,400 Climbing FlightAware ADS-B
08:38AM 48.9953 2.5481 265° West 180 207 800 2,580 Climbing FlightAware ADS-B
08:39AM 48.9932 2.5176 264° West 180 207 1,900 2,400 Climbing FlightAware ADS-B
08:39AM 48.9919 2.4980 264° West 181 208 2,400 1,980 Climbing FlightAware ADS-B
08:39AM 48.9912 2.4867 265° West 181 208 2,700 2,160 Climbing FlightAware ADS-B
08:39AM 48.9899 2.4666 264° West 183 211 3,300 1,860 Climbing FlightAware ADS-B
08:40AM 48.9885 2.4459 264° West 191 220 3,700 1,080 Climbing FlightAware ADS-B
08:40AM 48.9870 2.4224 264° West 212 244 3,900 960 Climbing FlightAware ADS-B
08:40AM 48.9855 2.3990 264° West 231 266 4,200 1,380 Climbing FlightAware ADS-B
08:40AM 48.9841 2.3733 265° West 244 281 4,600 1,980 Climbing FlightAware ADS-B
08:40AM 48.9830 2.3533 265° West 248 285 5,100 2,460 Climbing FlightAware ADS-B
08:41AM 48.9820 2.3332 266° West 251 289 5,600 2,280 Climbing FlightAware ADS-B
08:41AM 48.9814 2.3221 265° West 252 290 5,800 2,640 Climbing FlightAware ADS-B
08:41AM 48.9808 2.3154 262° West 254 292 6,000 2,520 Climbing FlightAware ADS-B
08:41AM 48.9798 2.3097 255° West 254 292 6,100 2,640 Climbing FlightAware ADS-B
08:41AM 48.9776 2.3011 249° West 256 295 6,400 2,640 Climbing FlightAware ADS-B
08:41AM 48.9754 2.2954 240° Southwest 258 297 6,500 1,680 Climbing FlightAware ADS-B
08:41AM 48.9734 2.2910 236° Southwest 260 299 6,600 1,980 Climbing FlightAware ADS-B
08:41AM 48.9706 2.2861 229° Southwest 263 303 6,700 1,680 Climbing FlightAware ADS-B
08:41AM 48.9668 2.2806 223° Southwest 269 310 6,800 1,500 Climbing FlightAware ADS-B
08:41AM 48.9631 2.2764 217° Southwest 272 313 6,900 1,980 Climbing FlightAware ADS-B
08:41AM 48.9577 2.2714 211° Southwest 277 319 7,100 2,220 Climbing FlightAware ADS-B
08:41AM 48.9538 2.2687 204° Southwest 278 320 7,200 2,520 Climbing FlightAware ADS-B
08:41AM 48.9492 2.2664 198° South 280 322 7,400 3,000 Climbing FlightAware ADS-B
08:42AM 48.9441 2.2648 192° South 280 322 7,600 3,000 Climbing FlightAware ADS-B
08:42AM 48.9386 2.2641 185° South 282 325 7,800 3,000 Climbing FlightAware ADS-B
08:42AM 48.9343 2.2641 179° South 283 326 8,000 3,000 Climbing FlightAware ADS-B
08:42AM 48.9293 2.2648 175° South 285 328 8,200 2,820 Climbing FlightAware ADS-B
08:42AM 48.9084 2.2692 172° South 288 331 8,900 2,640 Climbing FlightAware ADS-B
08:42AM 48.8952 2.2717 173° South 290 334 9,300 2,280 Climbing FlightAware ADS-B
08:42AM 48.8749 2.2747 174° South 291 335 9,900 1,800 Climbing FlightAware ADS-B
08:43AM 48.8320 2.2799 175° South 316 364 10,700 1,560 Climbing FlightAware ADS-B
08:43AM 48.8041 2.2820 177° South 328 377 11,200 2,400 Climbing FlightAware ADS-B
08:44AM 48.7642 2.2789 183° South 331 381 12,500 2,820 Climbing FlightAware ADS-B
08:44AM 48.7172 2.2722 185° South 336 387 13,900 2,700 Climbing FlightAware ADS-B
08:45AM 48.6697 2.2651 186° South 342 394 15,300 2,640 Climbing FlightAware ADS-B
08:45AM 48.6215 2.2579 186° South 348 400 16,600 2,400 Climbing FlightAware ADS-B
08:46AM 48.5600 2.2490 185° South 355 409 18,100 2,340 Climbing FlightAware
08:46AM 48.5164 2.2424 186° South 355 409 19,100 2,160 Climbing FlightAware ADS-B
08:47AM 48.4633 2.2345 186° South 370 426 20,200 1,980 Climbing FlightAware ADS-B
08:47AM 48.4096 2.2266 186° South 379 436 21,200 1,560 Climbing FlightAware ADS-B
08:48AM 48.3761 2.2221 185° South 391 450 21,500 600 Climbing FlightAware ADS-B
08:48AM 48.3231 2.2281 176° South 421 484 21,700 720 Climbing FlightAware ADS-B
08:49AM 48.2631 2.2423 171° South 442 509 22,200 1,260 Climbing FlightAware ADS-B
08:49AM 48.2006 2.2597 169° South 451 519 23,000 1,740 Climbing FlightAware ADS-B
08:50AM 48.1364 2.2772 170° South 453 521 24,000 1,680 Climbing FlightAware ADS-B
08:51AM 47.9870 2.3160 170° South 473 544 26,000 1,500 Climbing FlightAware
08:52AM 47.9030 2.3380 170° South 483 556 26,900 1,380 Climbing FlightAware
08:52AM 47.8000 2.3640 170° South 493 567 28,000 1,440 Climbing FlightAware
08:53AM 47.7070 2.3880 170° South 500 575 29,000 1,320 Climbing FlightAware
08:54AM 47.6080 2.4140 170° South 508 585 29,900 1,320 Climbing FlightAware
08:54AM 47.5100 2.4390 170° South 510 587 30,900 780 Climbing FlightAware
08:55AM 47.4210 2.4620 170° South 509 586 31,000 60 Climbing FlightAware
08:56AM 47.3140 2.4900 170° South 509 586 31,000  Level FlightAware
08:56AM 47.2250 2.5120 170° South 511 588 31,000  Level FlightAware
08:57AM 47.1290 2.5370 170° South 511 588 31,000  Level FlightAware
08:58AM 47.0240 2.5630 170° South 507 583 31,000  Level FlightAware
08:59AM 46.9320 2.5870 170° South 509 586 31,000  Level FlightAware
08:59AM 46.8280 2.6130 170° South 511 588 31,000  Level FlightAware
09:00AM 46.7360 2.6320 172° South 512 589 31,000  Level FlightAware
09:01AM 46.6480 2.6360 178° South 513 590 31,000  Level FlightAware
09:01AM 46.5320 2.6420 178° South 515 593 31,000  Level FlightAware
09:02AM 46.4370 2.6480 178° South 515 593 31,000  Level FlightAware
09:03AM 46.3300 2.6570 177° South 512 589 31,000  Level FlightAware
09:03AM 46.2390 2.6640 177° South 511 588 31,000  Level FlightAware
09:04AM 46.1420 2.6720 177° South 511 588 31,000  Level FlightAware
09:05AM 46.0380 2.6810 177° South 509 586 31,000  Level FlightAware
09:06AM 45.9420 2.6870 178° South 510 587 31,000  Level FlightAware
09:06AM 45.8220 2.6940 178° South 500 575 31,000  Level FlightAware
09:07AM 45.7170 2.7000 178° South 499 574 31,000  Level FlightAware
09:08AM 45.6440 2.7050 177° South 498 573 31,000  Level FlightAware
09:09AM 45.5080 2.7130 178° South 504 580 31,000  Level FlightAware
09:10AM 45.3790 2.7200 178° South 501 577 31,000  Level FlightAware
09:10AM 45.3000 2.7250 177° South 497 572 31,000  Level FlightAware
09:11AM 45.1840 2.7320 178° South 496 571 31,000  Level FlightAware
09:12AM 45.0950 2.7370 178° South 496 571 31,000  Level FlightAware
09:12AM 44.9880 2.7430 178° South 490 564 31,000  Level FlightAware
09:13AM 44.8960 2.7480 178° South 494 568 31,000  Level FlightAware
09:14AM 44.7950 2.7540 178° South 496 571 31,000  Level FlightAware
09:14AM 44.7060 2.7640 175° South 490 564 31,000  Level FlightAware
09:15AM 44.6020 2.7810 173° South 487 560 31,000  Level FlightAware
09:16AM 44.5170 2.7950 173° South 483 556 31,000  Level FlightAware
09:17AM 44.4300 2.8080 174° South 480 552 31,000  Level FlightAware
09:17AM 44.3270 2.8250 173° South 475 547 31,000  Level FlightAware
09:18AM 44.2450 2.8390 173° South 474 545 31,000  Level FlightAware
09:19AM 44.1550 2.8540 173° South 473 544 31,000  Level FlightAware
09:19AM 44.0530 2.8710 173° South 469 540 31,000  Level FlightAware
09:20AM 43.9720 2.8860 172° South 466 536 31,000  Level FlightAware
09:21AM 43.8980 2.8990 173° South 464 534 31,000  Level FlightAware
09:21AM 43.7890 2.9150 174° South 459 528 31,000  Level FlightAware
09:22AM 43.6960 2.9290 174° South 457 526 31,000  Level FlightAware
09:23AM 43.6120 2.9430 173° South 455 524 31,000  Level FlightAware
09:24AM 43.5170 2.9590 173° South 454 522 31,000  Level FlightAware
09:24AM 43.4330 2.9720 174° South 452 520 31,000  Level FlightAware
09:25AM 43.3520 2.9860 173° South 449 517 31,000  Level FlightAware
09:26AM 43.2600 3.0010 173° South 447 514 31,000  Level FlightAware
09:26AM 43.1730 3.0150 173° South 447 514 31,000  Level FlightAware
09:27AM 43.0840 3.0290 173° South 447 514 31,000  Level FlightAware
09:28AM 43.0020 3.0420 173° South 448 516 31,000  Level FlightAware
09:28AM 42.9190 3.0560 173° South 450 518 31,000  Level FlightAware
09:29AM 42.8270 3.0700 174° South 454 522 31,000  Level FlightAware
09:30AM 42.7430 3.0840 173° South 456 525 31,000  Level FlightAware
09:31AM 42.6590 3.0970 174° South 457 526 31,000  Level FlightAware
09:31AM 42.5630 3.1120 173° South 457 526 31,000  Level FlightAware
09:32AM 42.4710 3.1270 173° South 457 526 31,000  Level FlightAware
09:33AM 42.3890 3.1400 173° South 457 526 31,000  Level FlightAware
09:33AM 42.3010 3.1540 173° South 457 526 31,000  Level FlightAware
09:34AM 42.2060 3.1690 173° South 456 525 31,000  Level FlightAware
09:35AM 42.1200 3.1820 174° South 457 526 31,000  Level FlightAware
09:35AM 42.0370 3.1950 173° South 459 528 31,000  Level FlightAware
09:36AM 41.9450 3.2060 175° South 459 528 31,000  Level FlightAware
09:37AM 41.8760 3.2050 181° South 458 527 31,000  Level FlightAware
09:38AM 41.7330 3.1990 182° South 457 526 31,000  Level FlightAware
09:39AM 41.6500 3.1950 182° South 454 522 31,000  Level FlightAware
09:39AM 41.5510 3.1900 182° South 456 525 31,000  Level FlightAware
09:40AM 41.4660 3.1860 182° South 458 527 31,000  Level FlightAware
09:41AM 41.3830 3.1820 182° South 458 527 31,000  Level FlightAware
09:41AM 41.2880 3.1770 182° South 456 525 31,000  Level FlightAware
09:42AM 41.2040 3.1730 182° South 455 524 31,000  Level FlightAware
09:43AM 41.1080 3.1690 182° South 456 525 31,000  Level FlightAware
09:43AM 41.0240 3.1650 182° South 458 527 31,000  Level FlightAware
09:44AM 40.9380 3.1610 182° South 462 532 31,000  Level FlightAware
09:45AM 40.8440 3.1570 182° South 461 531 31,000  Level FlightAware
09:46AM 40.7600 3.1530 182° South 464 534 31,000 180 Level FlightAware
09:46AM 40.6720 3.1490 182° South 465 535 31,300 1,020 Climbing FlightAware
09:47AM 40.5750 3.1440 182° South 467 537 32,500 1,200 Climbing FlightAware
09:48AM 40.4870 3.1400 182° South 474 545 33,000 300 Climbing FlightAware
09:48AM 40.3940 3.1360 182° South 469 540 33,000  Level FlightAware
09:49AM 40.3040 3.1320 182° South 466 536 33,000  Level FlightAware
09:50AM 40.2190 3.1280 182° South 466 536 33,000  Level FlightAware
09:50AM 40.1210 3.1230 182° South 469 540 33,000  Level FlightAware
09:51AM 40.0370 3.1200 182° South 470 541 33,000  Level FlightAware
09:52AM 39.9370 3.1090 185° South 461 531 33,000  Level FlightAware
09:53AM 39.8570 3.0650 203° Southwest 463 533 33,000  Level FlightAware
09:53AM 39.7810 3.0090 210° Southwest 463 533 33,000  Level FlightAware
09:54AM 39.6970 2.9460 210° Southwest 464 534 33,000  Level FlightAware
09:55AM 39.6220 2.8920 209° Southwest 463 533 33,000  Level FlightAware
09:56AM 39.5230 2.8210 209° Southwest 464 534 33,000  Level FlightAware
09:56AM 39.4370 2.7640 207° Southwest 465 535 33,000  Level FlightAware
09:57AM 39.3500 2.7350 194° South 474 545 33,000  Level FlightAware
09:58AM 39.2550 2.7100 192° South 474 545 33,000  Level FlightAware
09:58AM 39.1660 2.6860 192° South 474 545 33,000  Level FlightAware
09:59AM 39.0820 2.6640 191° South 475 547 33,000  Level FlightAware
09:59AM 39.0310 2.6500 192° South 474 545 33,000  Level FlightAware
10:00AM 38.9300 2.6230 192° South 476 548 33,000  Level FlightAware
10:01AM 38.8460 2.6010 192° South 475 547 33,000  Level FlightAware
10:02AM 38.7480 2.5750 192° South 476 548 33,000  Level FlightAware
10:02AM 38.6700 2.5550 191° South 476 548 33,000  Level FlightAware
10:03AM 38.5590 2.5250 192° South 474 545 33,000  Level FlightAware
10:04AM 38.4720 2.5020 192° South 474 545 33,000  Level FlightAware
10:04AM 38.3980 2.4830 191° South 474 545 33,000  Level FlightAware
10:05AM 38.2910 2.4550 192° South 473 544 33,000  Level FlightAware
10:06AM 38.1470 2.4180 191° South 474 545 33,000  Level FlightAware
10:07AM 38.0700 2.3880 197° South 473 544 33,000  Level FlightAware
10:08AM 37.9830 2.3610 194° South 473 544 33,000  Level FlightAware
10:08AM 37.8760 2.3260 194° South 466 536 33,000  Level FlightAware
10:09AM 37.7960 2.3000 194° South 466 536 33,000  Level FlightAware
10:10AM 37.7030 2.2700 194° South 466 536 33,000  Level FlightAware
10:10AM 37.6340 2.2460 195° South 466 536 33,000  Level FlightAware
10:11AM 37.5280 2.2120 194° South 467 537 33,000  Level FlightAware
10:13AM 37.3320 2.1480 195° South 464 534 33,000  Level FlightAware
10:13AM 37.2460 2.1180 196° South 464 534 33,000  Level FlightAware
10:14AM 37.1760 2.0950 195° South 464 534 33,000  Level FlightAware
10:15AM 37.1050 2.0710 195° South 464 534 33,000  Level FlightAware
10:16AM 37.0170 2.0410 195° South 464 534 33,000  Level FlightAware
10:16AM 36.9460 2.0180 195° South 464 534 33,000  Level FlightAware
10:17AM 36.8760 1.9940 195° South 464 534 33,000  Level FlightAware
10:18AM 36.8050 1.9710 195° South 464 534 33,000  Level FlightAware
10:18AM 36.7350 1.9470 195° South 464 534 33,000  Level FlightAware
10:19AM 36.6470 1.9180 195° South 464 534 33,000  Level FlightAware
10:20AM 36.5760 1.8940 195° South 464 534 33,000  Level FlightAware
10:20AM 36.5060 1.8710 195° South 464 534 33,000  Level FlightAware
10:21AM 36.4350 1.8470 195° South 464 534 33,000  Level FlightAware
10:22AM 36.3650 1.8240 195° South 464 534 33,000  Level FlightAware
10:23AM 36.2770 1.7940 195° South 464 534 33,000  Level FlightAware
10:25AM 36.0511 1.7399 191° South  Level Estimated
10:26AM 35.9312 1.7113 191° South  Level Estimated
10:27AM 35.8113 1.6827 191° South  Level Estimated
10:28AM 35.6913 1.6543 191° South  Level Estimated
10:29AM 35.5714 1.6260 191° South  Level Estimated
10:30AM 35.4514 1.5977 191° South  Level Estimated
10:31AM 35.3314 1.5695 191° South  Level Estimated
10:32AM 35.2114 1.5414 191° South  Level Estimated
10:33AM 35.0915 1.5134 191° South  Level Estimated
10:34AM 34.9715 1.4855 191° South  Level Estimated
10:35AM 34.8515 1.4576 191° South  Level Estimated
10:36AM 34.7315 1.4298 191° South  Level Estimated
10:37AM 34.6115 1.4022 191° South  Level Estimated
10:38AM 34.4915 1.3745 191° South  Level Estimated
10:39AM 34.3714 1.3470 191° South  Level Estimated
10:40AM 34.2514 1.3196 191° South  Level Estimated
10:41AM 34.1314 1.2922 191° South  Level Estimated
10:42AM 34.0113 1.2649 191° South  Level Estimated
10:43AM 33.8913 1.2377 191° South  Level Estimated
10:44AM 33.7712 1.2105 191° South  Level Estimated
10:45AM 33.6512 1.1835 191° South  Level Estimated
10:46AM 33.5311 1.1565 191° South  Level Estimated
10:47AM 33.4110 1.1296 191° South  Level Estimated
10:48AM 33.2910 1.1027 191° South  Level Estimated
10:49AM 33.1709 1.0760 191° South  Level Estimated
10:50AM 33.0508 1.0493 191° South  Level Estimated
10:51AM 32.9307 1.0227 191° South  Level Estimated
10:52AM 32.8106 0.9961 191° South  Level Estimated
10:53AM 32.6905 0.9696 191° South  Level Estimated
10:54AM 32.5704 0.9432 190° South  Level Estimated
10:55AM 32.4503 0.9169 190° South  Level Estimated
10:56AM 32.3302 0.8906 190° South  Level Estimated
10:57AM 32.2101 0.8644 190° South  Level Estimated
10:58AM 32.0899 0.8383 190° South  Level Estimated
10:59AM 31.9698 0.8122 190° South  Level Estimated
11:00AM 31.8496 0.7862 190° South  Level Estimated
11:01AM 31.7295 0.7603 190° South  Level Estimated
11:02AM 31.6094 0.7344 190° South  Level Estimated
11:03AM 31.4892 0.7087 190° South  Level Estimated
11:04AM 31.3690 0.6829 190° South  Level Estimated
11:05AM 31.2489 0.6573 190° South  Level Estimated
11:06AM 31.1287 0.6317 190° South  Level Estimated
11:07AM 31.0085 0.6062 190° South  Level Estimated
11:08AM 30.8883 0.5807 190° South  Level Estimated
11:09AM 30.7681 0.5553 190° South  Level Estimated
11:10AM 30.6479 0.5300 190° South  Level Estimated
11:11AM 30.5278 0.5047 190° South  Level Estimated
11:12AM 30.4076 0.4795 190° South  Level Estimated
11:13AM 30.2873 0.4543 190° South  Level Estimated
11:14AM 30.1671 0.4292 190° South  Level Estimated
11:15AM 30.0469 0.4042 190° South  Level Estimated
11:16AM 29.9267 0.3793 190° South  Level Estimated
11:17AM 29.8065 0.3544 190° South  Level Estimated
11:18AM 29.6862 0.3295 190° South  Level Estimated
11:19AM 29.5660 0.3047 190° South  Level Estimated
11:20AM 29.4458 0.2800 190° South  Level Estimated
11:21AM 29.3255 0.2553 190° South  Level Estimated
11:22AM 29.2053 0.2307 190° South  Level Estimated
11:23AM 29.0850 0.2062 190° South  Level Estimated
11:24AM 28.9648 0.1817 190° South  Level Estimated
11:25AM 28.8445 0.1572 190° South  Level Estimated
11:26AM 28.7242 0.1329 190° South  Level Estimated
11:27AM 28.6040 0.1085 190° South  Level Estimated
11:28AM 28.4837 0.0843 190° South  Level Estimated
11:29AM 28.3634 0.0600 190° South  Level Estimated
11:30AM 28.2431 0.0359 190° South  Level Estimated
11:31AM 28.1228 0.0118 190° South  Level Estimated
11:32AM 28.0026 -0.0123 190° South  Level Estimated
11:33AM 27.8822 -0.0363 190° South  Level Estimated
11:34AM 27.7619 -0.0602 190° South  Level Estimated
11:35AM 27.6416 -0.0841 190° South  Level Estimated
11:36AM 27.5213 -0.1079 190° South  Level Estimated
11:37AM 27.4010 -0.1317 190° South  Level Estimated
11:38AM 27.2807 -0.1555 190° South  Level Estimated
11:39AM 27.1604 -0.1791 190° South  Level Estimated
11:40AM 27.0401 -0.2028 190° South  Level Estimated
11:41AM 26.9197 -0.2263 190° South  Level Estimated
11:42AM 26.7994 -0.2499 190° South  Level Estimated
11:43AM 26.6791 -0.2734 190° South  Level Estimated
11:44AM 26.5587 -0.2968 190° South  Level Estimated
11:45AM 26.4384 -0.3202 190° South  Level Estimated
11:46AM 26.3180 -0.3435 190° South  Level Estimated
11:47AM 26.1977 -0.3668 190° South  Level Estimated
11:48AM 26.0773 -0.3900 190° South  Level Estimated
11:49AM 25.9570 -0.4132 190° South  Level Estimated
11:50AM 25.8366 -0.4364 190° South  Level Estimated
11:51AM 25.7162 -0.4595 190° South  Level Estimated
11:52AM 25.5959 -0.4825 190° South  Level Estimated
11:53AM 25.4755 -0.5055 190° South  Level Estimated
11:54AM 25.3551 -0.5285 190° South  Level Estimated
11:55AM 25.2348 -0.5514 190° South  Level Estimated
11:56AM 25.1144 -0.5742 190° South  Level Estimated
11:57AM 24.9940 -0.5971 190° South  Level Estimated
11:58AM 24.8736 -0.6198 190° South  Level Estimated
11:59AM 24.7532 -0.6426 190° South  Level Estimated
12:00PM 24.6328 -0.6653 190° South  Level Estimated
12:01PM 24.5124 -0.6879 190° South  Level Estimated
12:02PM 24.3920 -0.7105 190° South  Level Estimated
12:03PM 24.2716 -0.7331 190° South  Level Estimated
12:04PM 24.1512 -0.7556 190° South  Level Estimated
12:05PM 24.0308 -0.7781 190° South  Level Estimated
12:06PM 23.9104 -0.8005 190° South  Level Estimated
12:07PM 23.7899 -0.8229 190° South  Level Estimated
12:08PM 23.6695 -0.8452 190° South  Level Estimated
12:09PM 23.5491 -0.8675 190° South  Level Estimated
12:10PM 23.4286 -0.8898 190° South  Level Estimated
12:11PM 23.3082 -0.9120 190° South  Level Estimated
12:12PM 23.1878 -0.9342 190° South  Level Estimated
12:13PM 23.0673 -0.9563 190° South  Level Estimated
12:14PM 22.9469 -0.9785 190° South  Level Estimated
12:15PM 22.8265 -1.0005 190° South  Level Estimated
12:16PM 22.7060 -1.0225 190° South  Level Estimated
12:17PM 22.5856 -1.0445 190° South  Level Estimated
12:18PM 22.4651 -1.0665 190° South  Level Estimated
12:19PM 22.3446 -1.0884 190° South  Level Estimated
12:20PM 22.2242 -1.1103 190° South  Level Estimated
12:21PM 22.1037 -1.1321 190° South  Level Estimated
12:22PM 21.9832 -1.1539 190° South  Level Estimated
12:23PM 21.8628 -1.1757 190° South  Level Estimated
12:24PM 21.7423 -1.1974 190° South  Level Estimated
12:25PM 21.6218 -1.2191 190° South  Level Estimated
12:26PM 21.5014 -1.2407 189° South  Level Estimated
12:27PM 21.3809 -1.2624 189° South  Level Estimated
12:28PM 21.2604 -1.2839 189° South  Level Estimated
12:29PM 21.1399 -1.3055 189° South  Level Estimated
12:30PM 21.0194 -1.3270 189° South  Level Estimated
12:31PM 20.8989 -1.3485 189° South  Level Estimated
12:32PM 20.7784 -1.3699 189° South  Level Estimated
12:33PM 20.6579 -1.3913 189° South  Level Estimated
12:34PM 20.5374 -1.4127 189° South  Level Estimated
12:35PM 20.4169 -1.4340 189° South  Level Estimated
12:36PM 20.2964 -1.4554 189° South  Level Estimated
12:37PM 20.1759 -1.4766 189° South  Level Estimated
12:38PM 20.0554 -1.4979 189° South  Level Estimated
12:39PM 19.9349 -1.5191 189° South  Level Estimated
12:40PM 19.8144 -1.5402 189° South  Level Estimated
12:41PM 19.6939 -1.5614 189° South  Level Estimated
12:42PM 19.5733 -1.5825 189° South  Level Estimated
12:43PM 19.4528 -1.6036 189° South  Level Estimated
12:44PM 19.3323 -1.6246 189° South  Level Estimated
12:45PM 19.2118 -1.6457 189° South  Level Estimated
12:46PM 19.0912 -1.6666 189° South  Level Estimated
12:47PM 18.9707 -1.6876 189° South  Level Estimated
12:48PM 18.8502 -1.7085 189° South  Level Estimated
12:49PM 18.7296 -1.7294 189° South  Level Estimated
12:50PM 18.6091 -1.7503 189° South  Level Estimated
12:51PM 18.4886 -1.7711 189° South  Level Estimated
12:52PM 18.3680 -1.7919 189° South  Level Estimated
12:53PM 18.2475 -1.8127 189° South  Level Estimated
12:54PM 18.1269 -1.8335 189° South  Level Estimated
12:55PM 18.0064 -1.8542 189° South  Level Estimated
12:56PM 17.8858 -1.8749 189° South  Level Estimated
12:57PM 17.7653 -1.8956 189° South  Level Estimated
12:58PM 17.6447 -1.9162 189° South  Level Estimated
12:59PM 17.5242 -1.9368 189° South  Level Estimated
01:00PM 17.4036 -1.9574 189° South  Level Estimated
01:01PM 17.2830 -1.9779 189° South  Level Estimated
01:02PM 17.1625 -1.9985 189° South  Level Estimated
01:03PM 17.0419 -2.0190 189° South  Level Estimated
01:04PM 16.9213 -2.0394 189° South  Level Estimated
01:05PM 16.8008 -2.0599 189° South  Level Estimated
01:06PM 16.6802 -2.0803 189° South  Level Estimated
01:07PM 16.5596 -2.1007 189° South  Level Estimated
01:08PM 16.4390 -2.1211 189° South  Level Estimated
01:09PM 16.3184 -2.1414 189° South  Level Estimated
01:10PM 16.1979 -2.1617 189° South  Level Estimated
01:11PM 16.0773 -2.1820 189° South  Level Estimated
01:12PM 15.9567 -2.2023 189° South  Level Estimated
01:13PM 15.8361 -2.2226 189° South  Level Estimated
01:14PM 15.7155 -2.2428 189° South  Level Estimated
01:15PM 15.5949 -2.2630 189° South  Level Estimated
01:16PM 15.4743 -2.2832 189° South  Level Estimated
01:17PM 15.3537 -2.3033 189° South  Level Estimated
01:18PM 15.2331 -2.3234 189° South  Level Estimated
01:19PM 15.1125 -2.3435 189° South  Level Estimated
01:20PM 14.9919 -2.3636 189° South  Level Estimated
01:21PM 14.8713 -2.3837 189° South  Level Estimated
01:22PM 14.7507 -2.4037 189° South  Level Estimated
01:23PM 14.6301 -2.4237 189° South  Level Estimated
01:24PM 14.5095 -2.4437 189° South  Level Estimated
01:25PM 14.3889 -2.4637 189° South  Level Estimated
01:26PM 14.2683 -2.4836 189° South  Level Estimated
01:27PM 14.1477 -2.5036 189° South  Level Estimated
01:28PM 14.0271 -2.5235 189° South  Level Estimated
01:29PM 13.9065 -2.5434 189° South  Level Estimated
01:30PM 13.7858 -2.5633 189° South  Level Estimated
01:31PM 13.6652 -2.5831 189° South  Level Estimated
01:32PM 13.5446 -2.6029 189° South  Level Estimated
01:33PM 13.4240 -2.6227 189° South  Level Estimated
01:34PM 13.3034 -2.6425 189° South  Level Estimated
01:35PM 13.1827 -2.6623 189° South  Level Estimated
01:36PM 13.0621 -2.6820 189° South  Level Estimated
01:37PM 12.9415 -2.7017 189° South  Level Estimated
01:38PM 12.8209 -2.7215 189° South  Level Estimated
01:39PM 12.7002 -2.7411 189° South  Level Estimated
01:40PM 12.5796 -2.7608 189° South  Level Estimated
01:41PM 12.4590 -2.7805 189° South  Level Estimated
01:42PM 12.3383 -2.8001 189° South  Level Estimated
01:43PM 12.2177 -2.8197 189° South  Level Estimated
01:44PM 12.0970 -2.8393 189° South  Level Estimated
01:45PM 11.9764 -2.8589 189° South  Level Estimated
01:46PM 11.8558 -2.8784 189° South  Level Estimated
01:47PM 11.7351 -2.8980 189° South  Level Estimated
01:48PM 11.6145 -2.9175 189° South  Level Estimated
01:49PM 11.4938 -2.9370 189° South  Level Estimated
01:50PM 11.3732 -2.9565 189° South  Level Estimated
01:51PM 11.2526 -2.9760 189° South  Level Estimated
01:52PM 11.1306 -2.9957 189° South  Level Estimated
01:53PM 11.0085 -3.0153 189° South  Level Estimated
01:54PM 10.8865 -3.0350 189° South  Level Estimated
01:55PM 10.7646 -3.0546 189° South  Level Estimated
01:56PM 10.6425 -3.0742 189° South  Level Estimated
01:57PM 10.5205 -3.0938 189° South  Level Estimated
01:58PM 10.3985 -3.1134 189° South  Level Estimated
01:59PM 10.2765 -3.1330 189° South  Level Estimated
02:00PM 10.1545 -3.1525 189° South  Level Estimated
02:01PM 10.0325 -3.1721 189° South  Level Estimated
02:02PM 9.9105 -3.1916 189° South  Level Estimated
02:03PM 9.7885 -3.2111 189° South  Level Estimated
02:04PM 9.6665 -3.2306 189° South  Level Estimated
02:05PM 9.5444 -3.2501 189° South  Level Estimated
02:06PM 9.4224 -3.2695 189° South  Level Estimated
02:07PM 9.3004 -3.2890 189° South  Level Estimated
02:08PM 9.1784 -3.3084 189° South  Level Estimated
02:09PM 9.0564 -3.3279 189° South  Level Estimated
02:10PM 8.9343 -3.3473 189° South  Level Estimated
02:11PM 8.8123 -3.3667 189° South  Level Estimated
02:12PM 8.6903 -3.3860 189° South  Level Estimated
02:13PM 8.5683 -3.4054 189° South  Level Estimated
02:14PM 8.4463 -3.4248 189° South  Level Estimated
02:15PM 8.3242 -3.4441 189° South  Level Estimated
02:16PM 8.2022 -3.4635 189° South  Level Estimated
02:17PM 8.0802 -3.4828 189° South  Level Estimated
02:18PM 7.9581 -3.5021 189° South  Level Estimated
02:19PM 7.8361 -3.5214 189° South  Level Estimated
02:20PM 7.7141 -3.5407 189° South  Level Estimated
02:21PM 7.5921 -3.5600 189° South  Level Estimated
02:22PM 7.4700 -3.5793 189° South  Level Estimated
02:23PM 7.3480 -3.5985 189° South  Level Estimated
02:24PM 7.2260 -3.6178 189° South  Level Estimated
02:25PM 7.1039 -3.6370 189° South  Level Estimated
02:26PM 6.9819 -3.6562 189° South  Level Estimated
02:27PM 6.8598 -3.6755 189° South  Level Estimated
02:28PM 6.7378 -3.6947 189° South  Level Estimated
02:29PM 6.6158 -3.7139 189° South  Level Estimated
02:30PM 6.4937 -3.7331 189° South  Level Estimated
02:31PM 6.3717 -3.7522 189° South  Level Estimated
02:32PM 6.2497 -3.7714 189° South  Level Estimated
02:33PM 6.1276 -3.7906 189° South  Level Estimated
02:34PM 6.0069 -3.8095 189° South  Level Estimated
02:35PM 5.8862 -3.8284 189° South  Level Estimated
02:36PM 5.7655 -3.8473 189° South  Level Estimated
02:37PM 5.6448 -3.8663 189° South  Level Estimated
02:38PM 5.5242 -3.8852 189° South  Level Estimated
02:39PM 5.4035 -3.9041 189° South  Level Estimated
02:40PM 5.2828 -3.9230 189° South  Level Estimated
02:41PM 5.2614 -3.9263 189° South  Level Estimated